createdAt,value
2019-02-23T00:00:23.291Z,22.40
2019-02-23T00:02:51.383Z,21.10
2019-02-23T00:05:19.483Z,21.97
2019-02-23T00:07:47.575Z,22.53
2019-02-23T00:10:15.658Z,22.87
2019-02-23T00:12:43.767Z,21.40
2019-02-23T00:15:11.856Z,24.43
2019-02-23T00:17:39.966Z,24.73
2019-02-23T00:20:08.034Z,25.07
2019-02-23T00:22:36.122Z,22.23
2019-02-23T00:25:04.683Z,19.90
2019-02-23T00:27:32.830Z,21.70
2019-02-23T00:30:00.907Z,24.00
2019-02-23T00:32:29.000Z,27.07
2019-02-23T00:34:57.084Z,26.13
2019-02-23T00:37:25.197Z,27.07
2019-02-23T00:39:53.287Z,28.77
2019-02-23T00:42:40.740Z,24.97
2019-02-23T00:45:08.900Z,28.93
2019-02-23T00:47:37.012Z,24.67
2019-02-23T00:50:05.263Z,27.57
2019-02-23T00:52:33.461Z,29.20
2019-02-23T00:55:01.544Z,25.70
2019-02-23T00:57:29.655Z,25.03
2019-02-23T00:59:57.748Z,26.77
2019-02-23T01:02:25.915Z,27.97
2019-02-23T01:04:54.017Z,25.53
2019-02-23T01:07:22.123Z,24.40
2019-02-23T01:09:50.203Z,24.73
2019-02-23T01:12:18.310Z,26.43
2019-02-23T01:14:46.403Z,24.57
2019-02-23T01:17:14.504Z,23.67
2019-02-23T01:19:47.755Z,23.03
2019-02-23T01:22:12.498Z,23.33
2019-02-23T01:24:40.596Z,24.83
2019-02-23T01:27:08.671Z,23.30
2019-02-23T01:29:36.780Z,25.43
2019-02-23T01:32:04.863Z,27.17
2019-02-23T01:34:32.980Z,25.30
2019-02-23T01:37:01.080Z,23.37
2019-02-23T01:39:29.220Z,23.53
2019-02-23T01:41:57.332Z,25.77
2019-02-23T01:44:25.510Z,25.10
2019-02-23T01:46:53.732Z,22.47
2019-02-23T01:49:21.842Z,26.23
2019-02-23T01:51:49.950Z,25.80
2019-02-23T01:54:18.024Z,23.93
2019-02-23T01:56:46.253Z,27.67
2019-02-23T01:59:14.344Z,26.30
2019-02-23T02:01:42.454Z,26.17
2019-02-23T02:04:10.527Z,24.47
2019-02-23T02:06:38.641Z,25.43
2019-02-23T02:09:06.720Z,26.30
2019-02-23T02:11:34.846Z,26.67
2019-02-23T02:14:03.000Z,23.20
2019-02-23T02:16:31.465Z,21.87
2019-02-23T02:18:59.552Z,22.13
2019-02-23T02:21:27.639Z,22.03
2019-02-23T02:23:55.730Z,24.17
2019-02-23T02:26:23.820Z,24.40
2019-02-23T02:28:51.921Z,22.60
2019-02-23T02:31:20.106Z,23.23
2019-02-23T02:34:04.903Z,20.63
2019-02-23T02:36:33.047Z,26.23
2019-02-23T02:39:01.175Z,25.67
2019-02-23T02:41:29.284Z,25.33
2019-02-23T02:43:57.364Z,26.23
2019-02-23T02:46:25.444Z,26.73
2019-02-23T02:48:53.532Z,27.30
2019-02-23T02:51:21.632Z,26.23
2019-02-23T02:53:49.808Z,27.80
2019-02-23T02:56:17.879Z,22.13
2019-02-23T02:58:45.983Z,24.77
2019-02-23T03:01:14.077Z,25.67
2019-02-23T03:03:42.221Z,23.03
2019-02-23T03:06:10.330Z,22.47
2019-02-23T03:08:38.459Z,27.37
2019-02-23T03:11:06.624Z,23.67
2019-02-23T03:13:34.723Z,23.37
2019-02-23T03:16:02.811Z,24.40
2019-02-23T03:18:30.928Z,26.20
2019-02-23T03:20:59.037Z,27.07
2019-02-23T03:23:27.147Z,25.23
2019-02-23T03:25:55.231Z,25.20
2019-02-23T03:28:23.337Z,26.57
2019-02-23T03:30:51.447Z,25.33
2019-02-23T03:33:19.533Z,24.73
2019-02-23T03:35:47.616Z,27.77
2019-02-23T03:38:15.725Z,24.27
2019-02-23T03:40:43.815Z,24.27
2019-02-23T03:43:11.915Z,25.23
2019-02-23T03:45:39.999Z,24.10
2019-02-23T03:48:08.092Z,23.07
2019-02-23T03:50:48.390Z,26.50
2019-02-23T03:53:05.996Z,23.10
2019-02-23T03:55:34.090Z,27.77
2019-02-23T03:58:02.197Z,24.90
2019-02-23T04:00:30.268Z,24.43
2019-02-23T04:02:58.369Z,25.83
2019-02-23T04:05:26.450Z,28.47
2019-02-23T04:07:54.548Z,27.77
2019-02-23T04:10:22.658Z,24.93
2019-02-23T04:12:50.820Z,27.10
2019-02-23T04:15:18.906Z,27.33
2019-02-23T04:17:46.999Z,23.53
2019-02-23T04:20:15.124Z,24.57
2019-02-23T04:22:44.204Z,22.13
2019-02-23T04:25:12.344Z,20.53
2019-02-23T04:27:42.062Z,21.13
2019-02-23T04:30:10.163Z,18.37
2019-02-23T04:32:38.250Z,19.10
2019-02-23T04:35:06.342Z,20.63
2019-02-23T04:37:34.426Z,19.73
2019-02-23T04:40:02.540Z,20.00
2019-02-23T04:42:30.642Z,21.80
2019-02-23T04:44:58.730Z,21.03
2019-02-23T04:47:26.812Z,20.97
2019-02-23T04:49:55.313Z,20.50
2019-02-23T04:52:23.466Z,22.60
2019-02-23T04:54:51.595Z,21.97
2019-02-23T04:57:19.707Z,18.80
2019-02-23T04:59:47.827Z,19.90
2019-02-23T05:02:15.932Z,23.47
2019-02-23T05:04:44.108Z,22.83
2019-02-23T05:07:12.203Z,21.70
2019-02-23T05:09:40.293Z,23.97
2019-02-23T05:12:08.403Z,25.17
2019-02-23T05:14:36.498Z,22.97
2019-02-23T05:17:04.565Z,22.90
2019-02-23T05:19:32.660Z,24.40
2019-02-23T05:22:00.751Z,27.00
2019-02-23T05:24:28.853Z,25.07
2019-02-23T05:26:56.948Z,26.67
2019-02-23T05:29:25.070Z,28.80
2019-02-23T05:31:53.149Z,26.03
2019-02-23T05:34:21.255Z,25.73
2019-02-23T05:36:49.362Z,22.50
2019-02-23T05:39:17.894Z,25.20
2019-02-23T05:41:46.043Z,24.93
2019-02-23T05:44:14.173Z,27.90
2019-02-23T05:46:42.248Z,27.03
2019-02-23T05:49:10.378Z,26.17
2019-02-23T05:51:39.191Z,25.70
2019-02-23T05:54:07.460Z,23.83
2019-02-23T05:56:35.548Z,25.97
2019-02-23T05:59:03.651Z,24.30
2019-02-23T06:01:31.887Z,25.37
2019-02-23T06:03:59.973Z,26.17
2019-02-23T06:06:28.090Z,27.03
2019-02-23T06:08:56.224Z,24.23
2019-02-23T06:11:24.385Z,23.37
2019-02-23T06:13:52.611Z,27.53
2019-02-23T06:16:20.799Z,22.60
2019-02-23T06:18:48.942Z,23.77
2019-02-23T06:21:17.097Z,26.20
2019-02-23T06:23:45.234Z,24.17
2019-02-23T06:26:13.400Z,24.23
2019-02-23T06:28:41.558Z,22.93
2019-02-23T06:31:09.670Z,25.03
2019-02-23T06:33:37.807Z,24.20
2019-02-23T06:36:05.925Z,23.00
2019-02-23T06:38:34.052Z,26.07
2019-02-23T06:41:02.183Z,24.57
2019-02-23T06:43:30.314Z,28.93
2019-02-23T06:45:58.424Z,27.83
2019-02-23T06:48:26.543Z,25.07
2019-02-23T06:50:54.657Z,25.47
2019-02-23T06:53:22.813Z,24.83
2019-02-23T06:55:50.948Z,24.07
2019-02-23T06:58:19.086Z,23.87
2019-02-23T07:00:47.326Z,31.33
2019-02-23T07:03:15.438Z,23.90
2019-02-23T07:05:43.578Z,24.63
2019-02-23T07:08:11.680Z,21.90
2019-02-23T07:10:39.817Z,27.07
2019-02-23T07:13:07.922Z,30.30
2019-02-23T07:15:36.057Z,27.73
2019-02-23T07:18:04.183Z,31.77
2019-02-23T07:20:43.474Z,25.97
2019-02-23T07:23:02.226Z,22.13
2019-02-23T07:25:30.336Z,23.03
2019-02-23T07:27:58.489Z,21.23
2019-02-23T07:30:27.189Z,21.33
2019-02-23T07:32:55.340Z,19.80
2019-02-23T07:35:23.479Z,19.07
2019-02-23T07:37:51.613Z,20.00
2019-02-23T07:40:19.778Z,19.93
2019-02-23T07:42:47.964Z,19.50
2019-02-23T07:45:16.089Z,21.40
2019-02-23T07:47:44.204Z,20.83
2019-02-23T07:50:13.613Z,20.33
2019-02-23T07:52:41.781Z,21.27
2019-02-23T07:55:09.977Z,21.10
2019-02-23T07:57:38.171Z,21.87
2019-02-23T08:00:12.493Z,23.77
2019-02-23T08:02:40.616Z,23.37
2019-02-23T08:05:09.490Z,21.60
2019-02-23T08:07:39.824Z,23.20
2019-02-23T08:10:09.028Z,19.63
2019-02-23T08:12:37.130Z,19.27
2019-02-23T08:15:06.827Z,22.10
2019-02-23T08:17:34.948Z,25.97
2019-02-23T08:20:03.464Z,30.97
2019-02-23T08:22:37.371Z,24.47
2019-02-23T08:25:01.518Z,22.97
2019-02-23T08:27:29.633Z,29.33
2019-02-23T08:29:57.796Z,25.87
2019-02-23T08:32:25.916Z,23.17
2019-02-23T08:34:54.025Z,27.17
2019-02-23T08:37:22.138Z,22.50
2019-02-23T08:39:50.284Z,32.13
2019-02-23T08:42:18.468Z,31.17
2019-02-23T08:44:46.637Z,28.87
2019-02-23T08:47:14.889Z,22.73
2019-02-23T08:49:42.992Z,18.03
2019-02-23T08:52:11.683Z,20.83
2019-02-23T08:54:39.849Z,21.90
2019-02-23T08:57:08.026Z,24.13
2019-02-23T08:59:36.123Z,19.83
2019-02-23T09:02:04.265Z,20.17
2019-02-23T09:04:32.443Z,20.30
2019-02-23T09:07:00.601Z,19.90
2019-02-23T09:09:28.690Z,20.17
2019-02-23T09:11:56.829Z,19.23
2019-02-23T09:14:24.935Z,17.77
2019-02-23T09:16:53.109Z,20.67
2019-02-23T09:19:21.305Z,17.13
2019-02-23T09:21:49.431Z,21.57
2019-02-23T09:24:17.554Z,19.10
2019-02-23T09:26:45.711Z,19.63
2019-02-23T09:29:13.852Z,16.13
2019-02-23T09:31:41.992Z,19.40
2019-02-23T09:34:10.080Z,19.40
2019-02-23T09:36:38.205Z,19.20
2019-02-23T09:39:06.319Z,19.27
2019-02-23T09:41:34.442Z,18.93
2019-02-23T09:44:02.544Z,17.57
2019-02-23T09:46:30.692Z,19.90
2019-02-23T09:48:58.812Z,17.97
2019-02-23T09:51:26.924Z,17.93
2019-02-23T09:53:55.038Z,18.70
2019-02-23T09:56:23.165Z,17.83
2019-02-23T09:58:51.269Z,18.13
2019-02-23T10:01:19.381Z,17.93
2019-02-23T10:03:47.513Z,18.67
2019-02-23T10:06:15.675Z,18.67
2019-02-23T10:08:43.797Z,19.83
2019-02-23T10:11:11.921Z,19.90
2019-02-23T10:13:40.046Z,19.43
2019-02-23T10:16:08.169Z,16.20
2019-02-23T10:18:36.330Z,17.23
2019-02-23T10:21:04.446Z,18.07
2019-02-23T10:23:32.600Z,17.57
2019-02-23T10:26:00.716Z,17.93
2019-02-23T10:28:28.835Z,18.40
2019-02-23T10:30:56.933Z,17.23
2019-02-23T10:33:25.110Z,18.10
2019-02-23T10:35:53.202Z,16.20
2019-02-23T10:38:21.333Z,16.07
2019-02-23T10:40:49.452Z,17.70
2019-02-23T10:43:17.580Z,18.43
2019-02-23T10:45:45.701Z,15.50
2019-02-23T10:48:13.828Z,16.80
2019-02-23T10:50:41.972Z,16.10
2019-02-23T10:53:10.095Z,13.93
2019-02-23T10:55:38.196Z,17.20
2019-02-23T10:58:06.306Z,17.80
2019-02-23T11:00:34.440Z,11.00
2019-02-23T11:03:02.598Z,10.83
2019-02-23T11:05:30.722Z,9.70
2019-02-23T11:07:58.841Z,8.67
2019-02-23T11:10:26.961Z,10.33
2019-02-23T11:12:55.089Z,11.60
2019-02-23T11:15:23.303Z,10.53
2019-02-23T11:17:51.391Z,10.33
2019-02-23T11:20:20.079Z,9.97
2019-02-23T11:22:48.283Z,9.97
2019-02-23T11:25:16.445Z,9.07
2019-02-23T11:27:44.555Z,9.93
2019-02-23T11:30:13.448Z,10.43
2019-02-23T11:32:41.585Z,11.37
2019-02-23T11:35:11.228Z,10.63
2019-02-23T11:37:39.369Z,10.70
2019-02-23T11:40:08.932Z,11.27
2019-02-23T11:42:37.113Z,11.57
2019-02-23T11:45:05.595Z,12.10
2019-02-23T11:47:33.801Z,10.83
2019-02-23T11:50:01.911Z,10.03
2019-02-23T11:52:30.004Z,8.47
2019-02-23T11:54:58.136Z,11.47
2019-02-23T11:57:26.244Z,9.87
2019-02-23T11:59:54.426Z,12.40
2019-02-23T12:02:22.573Z,12.63
2019-02-23T12:04:50.681Z,12.83
2019-02-23T12:07:18.828Z,10.70
2019-02-23T12:09:46.958Z,12.37
2019-02-23T12:12:15.087Z,10.70
2019-02-23T12:14:43.224Z,14.73
2019-02-23T12:17:11.358Z,13.87
2019-02-23T12:19:39.541Z,14.73
2019-02-23T12:22:12.298Z,15.70
2019-02-23T12:24:37.505Z,14.33
2019-02-23T12:27:05.626Z,17.37
2019-02-23T12:29:33.743Z,17.20
2019-02-23T12:32:01.932Z,17.67
2019-02-23T12:34:30.057Z,15.13
2019-02-23T12:36:58.171Z,13.47
2019-02-23T12:39:26.290Z,16.00
2019-02-23T12:41:54.408Z,15.13
2019-02-23T12:44:22.554Z,16.00
2019-02-23T12:46:50.721Z,15.97
2019-02-23T12:49:18.827Z,15.17
2019-02-23T12:51:46.998Z,15.57
2019-02-23T12:54:16.943Z,14.10
2019-02-23T12:56:45.027Z,13.13
2019-02-23T12:59:13.147Z,14.23
2019-02-23T13:01:41.236Z,16.47
2019-02-23T13:04:09.356Z,12.67
2019-02-23T13:06:37.441Z,13.47
2019-02-23T13:09:18.654Z,12.93
2019-02-23T13:11:51.230Z,12.77
2019-02-23T13:14:29.744Z,9.00
2019-02-23T13:16:59.350Z,8.80
2019-02-23T13:19:44.231Z,8.47
2019-02-23T13:22:13.844Z,10.07
2019-02-23T13:24:55.793Z,7.60
2019-02-23T13:27:25.484Z,8.23
2019-02-23T13:29:55.125Z,6.60
2019-02-23T13:32:41.241Z,7.07
2019-02-23T13:35:29.321Z,9.23
2019-02-23T13:38:04.871Z,7.97
2019-02-23T13:40:37.398Z,8.30
2019-02-23T13:43:07.003Z,8.03
2019-02-23T13:45:39.392Z,8.43
2019-02-23T13:48:27.092Z,11.13
2019-02-23T13:50:56.727Z,13.27
2019-02-23T13:53:35.113Z,12.50
2019-02-23T13:56:14.624Z,10.53
2019-02-23T13:58:50.061Z,17.43
2019-02-23T14:01:25.671Z,16.07
2019-02-23T14:03:55.300Z,17.50
2019-02-23T14:06:27.807Z,16.87
2019-02-23T14:09:09.645Z,21.80
2019-02-23T14:11:54.315Z,23.83
2019-02-23T14:14:26.588Z,26.13
2019-02-23T14:17:08.514Z,17.47
2019-02-23T14:19:54.575Z,16.30
2019-02-23T14:22:36.112Z,17.23
2019-02-23T14:25:05.742Z,16.77
2019-02-23T14:27:38.384Z,18.50
2019-02-23T14:30:10.776Z,19.10
2019-02-23T14:32:43.465Z,17.33
2019-02-23T14:35:28.491Z,16.33
2019-02-23T14:37:58.127Z,16.87
2019-02-23T14:40:44.464Z,18.10
2019-02-23T14:43:20.091Z,18.10
2019-02-23T14:46:06.416Z,16.13
2019-02-23T14:48:36.079Z,16.67
2019-02-23T14:51:05.724Z,15.90
2019-02-23T14:53:38.063Z,15.87
2019-02-23T14:56:07.694Z,15.13
2019-02-23T14:58:40.014Z,14.20
2019-02-23T15:01:18.748Z,17.43
2019-02-23T15:03:48.401Z,15.53
2019-02-23T15:06:18.016Z,16.00
2019-02-23T15:08:56.634Z,17.17
2019-02-23T15:11:26.256Z,15.60
2019-02-23T15:14:07.735Z,15.50
2019-02-23T15:16:37.353Z,16.47
2019-02-23T15:19:06.980Z,17.77
2019-02-23T15:21:39.525Z,14.60
2019-02-23T15:24:14.863Z,15.27
2019-02-23T15:26:59.442Z,17.23
2019-02-23T15:29:29.231Z,18.63
2019-02-23T15:32:07.787Z,19.03
2019-02-23T15:34:43.323Z,17.17
2019-02-23T15:37:19.098Z,15.03
2019-02-23T15:39:54.633Z,15.17
2019-02-23T15:42:24.301Z,15.83
2019-02-23T15:45:10.731Z,15.83
2019-02-23T15:47:43.233Z,15.13
2019-02-23T15:50:13.191Z,14.40
2019-02-23T15:52:41.236Z,14.87
2019-02-23T15:55:09.362Z,13.77
2019-02-23T15:57:37.484Z,13.13
2019-02-23T16:00:06.507Z,16.70
2019-02-23T16:02:34.582Z,14.27
2019-02-23T16:05:02.722Z,13.50
2019-02-23T16:07:30.839Z,12.87
2019-02-23T16:09:58.920Z,15.07
2019-02-23T16:12:27.016Z,14.97
2019-02-23T16:14:55.109Z,11.83
2019-02-23T16:17:23.187Z,15.57
2019-02-23T16:19:51.312Z,12.10
2019-02-23T16:22:19.390Z,14.17
2019-02-23T16:24:47.499Z,16.77
2019-02-23T16:27:15.625Z,17.63
2019-02-23T16:29:43.741Z,16.03
2019-02-23T16:32:11.817Z,13.60
2019-02-23T16:34:39.927Z,16.03
2019-02-23T16:37:08.012Z,17.80
2019-02-23T16:39:36.134Z,10.80
2019-02-23T16:42:04.252Z,21.50
2019-02-23T16:44:32.339Z,14.27
2019-02-23T16:47:00.427Z,14.43
2019-02-23T16:49:28.517Z,13.67
2019-02-23T16:51:56.609Z,12.27
2019-02-23T16:54:24.705Z,11.83
2019-02-23T16:56:52.792Z,14.67
2019-02-23T16:59:20.877Z,21.70
2019-02-23T17:01:49.024Z,13.83
2019-02-23T17:04:17.134Z,13.47
2019-02-23T17:06:45.203Z,14.47
2019-02-23T17:09:13.263Z,13.90
2019-02-23T17:11:41.497Z,12.67
2019-02-23T17:14:09.633Z,12.43
2019-02-23T17:16:37.772Z,11.60
2019-02-23T17:19:05.926Z,13.50
2019-02-23T17:21:34.015Z,11.33
2019-02-23T17:24:02.088Z,11.13
2019-02-23T17:26:30.166Z,10.67
2019-02-23T17:28:58.382Z,12.23
2019-02-23T17:31:26.487Z,11.10
2019-02-23T17:33:54.598Z,11.47
2019-02-23T17:36:22.747Z,14.17
2019-02-23T17:38:50.823Z,13.67
2019-02-23T17:41:18.907Z,10.90
2019-02-23T17:43:46.976Z,10.80
2019-02-23T17:46:15.209Z,12.37
2019-02-23T17:48:43.525Z,13.13
2019-02-23T17:51:11.617Z,14.23
2019-02-23T17:53:39.712Z,14.03
2019-02-23T17:56:12.278Z,10.97
2019-02-23T17:58:37.608Z,11.93
2019-02-23T18:01:05.727Z,11.00
2019-02-23T18:03:33.855Z,12.47
2019-02-23T18:06:01.942Z,12.90
2019-02-23T18:08:30.049Z,12.30
2019-02-23T18:10:58.138Z,12.17
2019-02-23T18:13:26.228Z,13.27
2019-02-23T18:15:54.316Z,12.33
2019-02-23T18:18:22.414Z,13.87
2019-02-23T18:20:50.528Z,11.27
2019-02-23T18:23:18.610Z,12.27
2019-02-23T18:25:46.896Z,11.37
2019-02-23T18:28:15.556Z,11.67
2019-02-23T18:30:43.675Z,12.13
2019-02-23T18:33:11.759Z,13.10
2019-02-23T18:35:39.853Z,9.80
2019-02-23T18:38:07.962Z,12.33
2019-02-23T18:40:36.086Z,10.77
2019-02-23T18:43:04.248Z,10.87
2019-02-23T18:45:32.441Z,12.17
2019-02-23T18:48:00.593Z,12.70
2019-02-23T18:50:28.698Z,11.47
2019-02-23T18:52:56.906Z,10.33
2019-02-23T18:55:25.913Z,11.80
2019-02-23T18:57:54.033Z,14.87
2019-02-23T19:00:24.456Z,12.97
2019-02-23T19:02:52.050Z,12.97
2019-02-23T19:05:20.173Z,12.03
2019-02-23T19:07:48.288Z,12.57
2019-02-23T19:10:16.389Z,13.63
2019-02-23T19:12:44.520Z,13.17
2019-02-23T19:15:13.083Z,14.23
2019-02-23T19:17:41.212Z,14.03
2019-02-23T19:20:10.672Z,13.57
2019-02-23T19:22:38.809Z,14.63
2019-02-23T19:25:07.900Z,14.03
2019-02-23T19:27:36.057Z,13.90
2019-02-23T19:30:05.472Z,12.00
2019-02-23T19:32:33.596Z,14.70
2019-02-23T19:35:01.751Z,17.97
2019-02-23T19:37:29.884Z,14.40
2019-02-23T19:39:58.011Z,12.33
2019-02-23T19:42:26.159Z,17.13
2019-02-23T19:44:54.280Z,14.47
2019-02-23T19:47:22.451Z,15.47
2019-02-23T19:49:50.631Z,17.20
2019-02-23T19:52:18.741Z,13.67
2019-02-23T19:54:46.841Z,16.17
2019-02-23T19:57:14.947Z,12.13
2019-02-23T19:59:43.078Z,12.97
2019-02-23T20:02:11.226Z,13.03
2019-02-23T20:04:39.396Z,12.13
2019-02-23T20:07:07.494Z,13.57
2019-02-23T20:09:35.645Z,15.53
2019-02-23T20:12:03.754Z,13.87
2019-02-23T20:14:31.952Z,10.67
2019-02-23T20:17:00.065Z,13.03
2019-02-23T20:19:28.203Z,14.93
2019-02-23T20:21:56.313Z,14.23
2019-02-23T20:24:24.456Z,11.67
2019-02-23T20:26:55.552Z,14.13
2019-02-23T20:29:22.488Z,12.73
2019-02-23T20:31:50.587Z,14.17
2019-02-23T20:34:18.719Z,14.40
2019-02-23T20:36:46.960Z,14.57
2019-02-23T20:39:15.099Z,15.53
2019-02-23T20:41:43.261Z,11.83
2019-02-23T20:44:11.343Z,15.33
2019-02-23T20:46:39.476Z,13.77
2019-02-23T20:49:07.687Z,14.10
2019-02-23T20:51:35.906Z,13.27
2019-02-23T20:54:03.983Z,14.30
2019-02-23T20:56:32.092Z,13.77
2019-02-23T20:59:00.173Z,12.50
2019-02-23T21:01:28.283Z,13.63
2019-02-23T21:03:56.396Z,14.47
2019-02-23T21:06:24.551Z,15.67
2019-02-23T21:08:52.677Z,13.20
2019-02-23T21:11:20.899Z,12.67
2019-02-23T21:13:49.004Z,12.17
2019-02-23T21:16:17.099Z,12.83
2019-02-23T21:18:45.197Z,14.00
2019-02-23T21:21:13.278Z,11.87
2019-02-23T21:23:41.406Z,12.27
2019-02-23T21:26:11.227Z,13.83
2019-02-23T21:28:39.411Z,15.53
2019-02-23T21:31:07.587Z,15.43
2019-02-23T21:33:35.671Z,14.20
2019-02-23T21:36:03.794Z,11.93
2019-02-23T21:38:31.989Z,14.00
2019-02-23T21:41:00.094Z,12.03
2019-02-23T21:43:28.349Z,11.60
2019-02-23T21:45:56.456Z,13.43
2019-02-23T21:48:24.572Z,14.80
2019-02-23T21:50:52.782Z,10.97
2019-02-23T21:53:20.915Z,16.60
2019-02-23T21:55:49.170Z,13.53
2019-02-23T21:58:17.262Z,13.80
2019-02-23T22:00:45.397Z,14.13
2019-02-23T22:03:13.551Z,15.83
2019-02-23T22:05:41.628Z,13.93
2019-02-23T22:08:09.726Z,14.87
2019-02-23T22:10:37.807Z,13.63
2019-02-23T22:13:05.902Z,13.20
2019-02-23T22:15:33.975Z,12.97
2019-02-23T22:18:02.068Z,12.20
2019-02-23T22:20:30.260Z,12.33
2019-02-23T22:22:58.399Z,10.30
2019-02-23T22:25:26.480Z,12.70
2019-02-23T22:27:54.572Z,10.37
2019-02-23T22:30:22.685Z,13.90
2019-02-23T22:32:50.799Z,10.23
2019-02-23T22:35:18.918Z,13.07
2019-02-23T22:37:47.047Z,13.20
2019-02-23T22:40:15.135Z,11.47
2019-02-23T22:42:43.242Z,9.40
2019-02-23T22:45:11.324Z,12.27
2019-02-23T22:47:39.426Z,10.10
2019-02-23T22:50:07.968Z,9.47
2019-02-23T22:52:36.063Z,11.63
2019-02-23T22:55:04.724Z,12.43
2019-02-23T22:57:40.247Z,11.77
2019-02-23T23:00:02.683Z,10.47
2019-02-23T23:02:30.815Z,10.57
2019-02-23T23:04:58.890Z,11.47
2019-02-23T23:07:26.992Z,10.60
2019-02-23T23:09:55.096Z,15.17
2019-02-23T23:12:23.190Z,10.77
2019-02-23T23:14:51.280Z,11.90
2019-02-23T23:17:19.387Z,9.67
2019-02-23T23:19:47.515Z,10.43
2019-02-23T23:22:15.616Z,11.87
2019-02-23T23:24:43.736Z,11.47
2019-02-23T23:27:11.811Z,8.23
2019-02-23T23:29:39.914Z,11.60
2019-02-23T23:32:07.987Z,9.23
2019-02-23T23:34:36.146Z,10.60
2019-02-23T23:37:04.307Z,10.10
2019-02-23T23:39:32.398Z,9.77
2019-02-23T23:42:00.468Z,12.20
2019-02-23T23:44:28.564Z,11.77
2019-02-23T23:46:56.656Z,9.10
2019-02-23T23:49:24.766Z,9.50
2019-02-23T23:51:52.856Z,8.77
2019-02-23T23:54:20.974Z,10.17
2019-02-23T23:56:49.057Z,8.33
2019-02-23T23:59:17.147Z,11.03
